| time (UTC) | temp F | wind direction | speed MPH | gust MPH | rain 1hr in | rain 24hr in | rain mn in | humidity % | barometer mb |
| 20260906200317 | 82 | 0 | 5.0 | 10.0 | 0.00 | 0.00 | 0.00 | 63 | 1014.9 |
| 20260906195317 | 82 | 0 | 5.0 | 9.0 | 0.00 | 0.00 | 0.00 | 62 | 1014.7 |
| 20260906194317 | 82 | 0 | 5.0 | 10.0 | 0.00 | 0.00 | 0.00 | 62 | 1014.7 |
| 20260906193317 | 82 | 0 | 5.0 | 14.0 | 0.00 | 0.00 | 0.00 | 62 | 1014.7 |
| 20260906192317 | 82 | 0 | 3.0 | 8.0 | 0.00 | 0.00 | 0.00 | 62 | 1014.8 |
| 20260906191317 | 83 | 0 | 7.0 | 11.0 | 0.00 | 0.00 | 0.00 | 60 | 1015.0 |
| 20260906190317 | 84 | 0 | 8.0 | 19.0 | 0.00 | 0.00 | 0.00 | 59 | 1014.9 |
| 20260906185317 | 85 | 0 | 6.0 | 10.0 | 0.00 | 0.00 | 0.00 | 59 | 1015.0 |
| 20260906184357 | 84 | 0 | 7.0 | 11.0 | 0.00 | 0.00 | 0.00 | 60 | 1015.3 |
| 20260906183317 | 85 | 0 | 6.0 | 11.0 | 0.00 | 0.00 | 0.00 | 59 | 1015.2 |
| 20260906182337 | 85 | 0 | 10.0 | 16.0 | 0.00 | 0.00 | 0.00 | 59 | 1015.1 |
| 20260906181337 | 85 | 0 | 9.0 | 15.0 | 0.00 | 0.00 | 0.00 | 58 | 1015.1 |
| 20260906180316 | 84 | 0 | 10.0 | 15.0 | 0.00 | 0.00 | 0.00 | 59 | 1014.9 |
| 20260906175316 | 84 | 0 | 3.0 | 8.0 | 0.00 | 0.00 | 0.00 | 60 | 1015.2 |
| 20260906174317 | 83 | 0 | 5.0 | 11.0 | 0.00 | 0.00 | 0.00 | 61 | 1015.2 |
| 20260906173337 | 82 | 0 | 5.0 | 8.0 | 0.00 | 0.00 | 0.00 | 61 | 1015.4 |
| 20260906172316 | 82 | 0 | 6.0 | 9.0 | 0.00 | 0.00 | 0.00 | 62 | 1015.5 |
| 20260906171316 | 82 | 0 | 1.0 | 3.0 | 0.00 | 0.00 | 0.00 | 61 | 1015.9 |
| 20260906170316 | 83 | 0 | 4.0 | 8.0 | 0.00 | 0.00 | 0.00 | 61 | 1015.9 |
| 20260906165316 | 82 | 0 | 7.0 | 10.0 | 0.00 | 0.00 | 0.00 | 61 | 1015.9 |
| 20260906164316 | 82 | 0 | 2.0 | 5.0 | 0.00 | 0.00 | 0.00 | 61 | 1016.2 |
| 20260906163316 | 82 | 0 | 5.0 | 10.0 | 0.00 | 0.00 | 0.00 | 61 | 1016.2 |
| 20260906162316 | 83 | 0 | 5.0 | 9.0 | 0.00 | 0.00 | 0.00 | 60 | 1016.1 |
| 20260906161317 | 82 | 0 | 3.0 | 6.0 | 0.00 | 0.00 | 0.00 | 61 | 1016.1 |
| 20260906160336 | 81 | 0 | 5.0 | 13.0 | 0.00 | 0.00 | 0.00 | 62 | 1016.0 |
| 20260906155316 | 80 | 0 | 3.0 | 6.0 | 0.00 | 0.00 | 0.00 | 62 | 1016.0 |
| 20260906154316 | 80 | 0 | 5.0 | 9.0 | 0.00 | 0.00 | 0.00 | 62 | 1016.0 |
| 20260906153316 | 80 | 0 | 6.0 | 11.0 | 0.00 | 0.00 | 0.00 | 63 | 1016.2 |
| 20260906152316 | 79 | 135 | 4.0 | 8.0 | 0.00 | 0.00 | 0.00 | 64 | 1016.1 |
| 20260906151316 | 78 | 0 | 6.0 | 10.0 | 0.00 | 0.00 | 0.00 | 64 | 1016.0 |
| 20260906150316 | 78 | 0 | 3.0 | 5.0 | 0.00 | 0.00 | 0.00 | 65 | 1016.0 |
| 20260906145316 | 78 | 0 | 5.0 | 8.0 | 0.00 | 0.00 | 0.00 | 65 | 1016.1 |
| 20260906144316 | 77 | 0 | 8.0 | 10.0 | 0.00 | 0.00 | 0.00 | 65 | 1016.0 |
| 20260906143336 | 77 | 0 | 3.0 | 6.0 | 0.00 | 0.00 | 0.00 | 66 | 1016.2 |
| 20260906142316 | 76 | 0 | 5.0 | 10.0 | 0.00 | 0.00 | 0.00 | 66 | 1016.3 |
| 20260906141316 | 77 | 0 | 4.0 | 8.0 | 0.00 | 0.00 | 0.00 | 65 | 1016.2 |
| 20260906140316 | 77 | 0 | 3.0 | 5.0 | 0.00 | 0.00 | 0.00 | 66 | 1016.1 |
| 20260906135316 | 76 | 0 | 4.0 | 5.0 | 0.00 | 0.00 | 0.00 | 66 | 1016.3 |
| 20260906134316 | 75 | 0 | 5.0 | 9.0 | 0.00 | 0.00 | 0.00 | 67 | 1016.3 |
| 20260906133316 | 75 | 0 | 3.0 | 5.0 | 0.00 | 0.00 | 0.00 | 67 | 1016.5 |
| 20260906132316 | 74 | 0 | 2.0 | 4.0 | 0.00 | 0.00 | 0.00 | 71 | 1016.4 |
| 20260906131316 | 73 | 0 | 3.0 | 6.0 | 0.00 | 0.00 | 0.00 | 76 | 1016.5 |
| 20260906130316 | 72 | 113 | 2.0 | 3.0 | 0.00 | 0.00 | 0.00 | 77 | 1016.5 |
| 20260906125316 | 71 | 113 | 2.0 | 4.0 | 0.00 | 0.00 | 0.00 | 77 | 1016.4 |
| 20260906124316 | 71 | 135 | 1.0 | 3.0 | 0.00 | 0.00 | 0.00 | 77 | 1016.2 |
| 20260906123316 | 71 | 180 | 1.0 | 2.0 | 0.00 | 0.00 | 0.00 | 77 | 1016.0 |
| 20260906122356 | 71 | 0 | 3.0 | 5.0 | 0.00 | 0.00 | 0.00 | 77 | 1016.2 |
| 20260906121316 | 70 | 0 | 1.0 | 2.0 | 0.00 | 0.00 | 0.00 | 78 | 1016.2 |
| 20260906120316 | 70 | 0 | 3.0 | 4.0 | 0.00 | 0.00 | 0.00 | 78 | 1016.2 |
| 20260906115316 | 70 | 0 | 1.0 | 2.0 | 0.00 | 0.00 | 0.00 | 76 | 1016.4 |
| 20260906114336 | 70 | 0 | 2.0 | 3.0 | 0.00 | 0.00 | 0.00 | 76 | 1016.4 |
| 20260906113336 | 70 | 0 | 1.0 | 2.0 | 0.00 | 0.00 | 0.00 | 76 | 1016.3 |
| 20260906112316 | 70 | 0 | 3.0 | 5.0 | 0.00 | 0.00 | 0.00 | 75 | 1016.2 |
| 20260906111316 | 70 | 0 | 1.0 | 3.0 | 0.00 | 0.00 | 0.00 | 75 | 1016.1 |
| 20260906110315 | 70 | 0 | 2.0 | 3.0 | 0.00 | 0.00 | 0.00 | 75 | 1016.2 |
| 20260906105336 | 69 | 0 | 2.0 | 3.0 | 0.00 | 0.00 | 0.00 | 74 | 1016.4 |
| 20260906104316 | 69 | 0 | 2.0 | 3.0 | 0.00 | 0.00 | 0.00 | 73 | 1016.2 |
| 20260906103316 | 69 | 0 | 2.0 | 4.0 | 0.00 | 0.00 | 0.00 | 72 | 1016.2 |
| 20260906102316 | 70 | 0 | 3.0 | 4.0 | 0.00 | 0.00 | 0.00 | 72 | 1016.0 |
| 20260906101316 | 70 | 0 | 3.0 | 4.0 | 0.00 | 0.00 | 0.00 | 71 | 1016.2 |
| 20260906100315 | 70 | 0 | 4.0 | 5.0 | 0.00 | 0.00 | 0.00 | 71 | 1016.0 |
| 20260906095315 | 70 | 0 | 3.0 | 4.0 | 0.00 | 0.00 | 0.00 | 70 | 1015.9 |
| 20260906094316 | 71 | 0 | 4.0 | 6.0 | 0.00 | 0.00 | 0.00 | 69 | 1015.9 |
| 20260906093335 | 71 | 0 | 3.0 | 5.0 | 0.00 | 0.00 | 0.00 | 69 | 1016.2 |
| 20260906092316 | 71 | 0 | 2.0 | 4.0 | 0.00 | 0.00 | 0.00 | 69 | 1016.0 |
| 20260906091335 | 71 | 0 | 3.0 | 4.0 | 0.00 | 0.00 | 0.00 | 69 | 1016.0 |
| 20260906090316 | 71 | 0 | 3.0 | 3.0 | 0.00 | 0.00 | 0.00 | 69 | 1016.0 |
| 20260906085316 | 71 | 0 | 2.0 | 3.0 | 0.00 | 0.00 | 0.00 | 69 | 1016.1 |
| 20260906084316 | 71 | 0 | 2.0 | 3.0 | 0.00 | 0.00 | 0.00 | 69 | 1015.9 |
| 20260906083315 | 71 | 0 | 1.0 | 2.0 | 0.00 | 0.00 | 0.00 | 68 | 1015.7 |
| 20260906082335 | 72 | 0 | 3.0 | 4.0 | 0.00 | 0.00 | 0.00 | 68 | 1015.8 |
| 20260906081316 | 72 | 0 | 1.0 | 2.0 | 0.00 | 0.00 | 0.00 | 67 | 1015.8 |
| 20260906080315 | 72 | 0 | 2.0 | 4.0 | 0.00 | 0.00 | 0.00 | 67 | 1015.6 |
| 20260906075315 | 72 | 0 | 1.0 | 3.0 | 0.00 | 0.00 | 0.00 | 67 | 1015.4 |
| 20260906074317 | 73 | 0.0 | 1.0 | 0.00 | 0.00 | 0.00 | 67 | 1015.5 | |
| 20260906073317 | 73 | 0 | 3.0 | 4.0 | 0.00 | 0.00 | 0.00 | 66 | 1015.6 |
| 20260906072317 | 73 | 0 | 3.0 | 4.0 | 0.00 | 0.00 | 0.00 | 66 | 1015.6 |
| 20260906071337 | 74 | 0 | 2.0 | 4.0 | 0.00 | 0.00 | 0.00 | 66 | 1015.5 |
| 20260906070317 | 74 | 0 | 3.0 | 5.0 | 0.00 | 0.00 | 0.00 | 65 | 1015.6 |
| 20260906065317 | 74 | 0 | 3.0 | 6.0 | 0.00 | 0.00 | 0.00 | 66 | 1015.6 |
| 20260906064337 | 74 | 180 | 2.0 | 3.0 | 0.00 | 0.00 | 0.00 | 65 | 1015.7 |
| 20260906063317 | 74 | 158 | 2.0 | 5.0 | 0.00 | 0.00 | 0.00 | 65 | 1015.8 |
| 20260906062317 | 74 | 135 | 2.0 | 5.0 | 0.00 | 0.00 | 0.00 | 65 | 1015.9 |
| 20260906061317 | 74 | 158 | 4.0 | 8.0 | 0.00 | 0.00 | 0.00 | 65 | 1016.2 |
| 20260906060337 | 74 | 135 | 3.0 | 5.0 | 0.00 | 0.00 | 0.00 | 65 | 1016.1 |
| 20260906055317 | 75 | 158 | 2.0 | 4.0 | 0.00 | 0.00 | 0.00 | 64 | 1016.1 |
| 20260906054317 | 75 | 158 | 2.0 | 6.0 | 0.00 | 0.00 | 0.00 | 64 | 1016.0 |
| 20260906053317 | 75 | 135 | 4.0 | 6.0 | 0.00 | 0.00 | 0.00 | 64 | 1015.7 |
| 20260906052337 | 75 | 0 | 6.0 | 10.0 | 0.00 | 0.00 | 0.00 | 64 | 1015.8 |
| 20260906051317 | 75 | 0 | 5.0 | 9.0 | 0.00 | 0.00 | 0.00 | 64 | 1015.9 |
| 20260906050337 | 75 | 0 | 5.0 | 9.0 | 0.00 | 0.00 | 0.00 | 64 | 1016.0 |
| 20260906045317 | 76 | 0 | 5.0 | 9.0 | 0.00 | 0.00 | 0.00 | 64 | 1016.1 |
| 20260906044317 | 76 | 0 | 5.0 | 9.0 | 0.00 | 0.00 | 0.00 | 64 | 1016.1 |
| 20260906043317 | 76 | 0 | 4.0 | 7.0 | 0.00 | 0.00 | 0.00 | 64 | 1016.1 |
| 20260906042317 | 76 | 0 | 6.0 | 8.0 | 0.00 | 0.00 | 0.00 | 63 | 1016.0 |
| 20260906041317 | 76 | 0 | 6.0 | 9.0 | 0.00 | 0.00 | 0.00 | 64 | 1015.9 |
| 20260906040317 | 76 | 0 | 6.0 | 10.0 | 0.00 | 0.00 | 0.00 | 64 | 1016.1 |
| 20260906035317 | 76 | 135 | 4.0 | 5.0 | 0.00 | 0.00 | 0.00 | 64 | 1015.9 |
| 20260906034317 | 76 | 0 | 2.0 | 5.0 | 0.00 | 0.00 | 0.00 | 64 | 1015.8 |
| 20260906033317 | 76 | 135 | 3.0 | 5.0 | 0.00 | 0.00 | 0.00 | 64 | 1016.1 |
| 20260906032317 | 76 | 113 | 2.0 | 4.0 | 0.00 | 0.00 | 0.00 | 64 | 1016.2 |
| 20260906031317 | 76 | 113 | 3.0 | 3.0 | 0.00 | 0.00 | 0.00 | 64 | 1016.2 |
| 20260906030317 | 76 | 135 | 2.0 | 4.0 | 0.00 | 0.00 | 0.00 | 64 | 1016.2 |
| 20260906025317 | 76 | 135 | 2.0 | 2.0 | 0.00 | 0.00 | 0.00 | 63 | 1016.2 |
| 20260906024317 | 77 | 0.0 | 0.0 | 0.00 | 0.00 | 0.00 | 62 | 1016.3 | |
| 20260906023317 | 77 | 0.0 | 2.0 | 0.00 | 0.00 | 0.00 | 62 | 1016.2 | |
| 20260906022317 | 78 | 113 | 2.0 | 4.0 | 0.00 | 0.00 | 0.00 | 61 | 1015.8 |
| 20260906021317 | 78 | 0 | 3.0 | 4.0 | 0.00 | 0.00 | 0.00 | 61 | 1015.7 |
| 20260906020317 | 78 | 113 | 3.0 | 5.0 | 0.00 | 0.00 | 0.00 | 60 | 1015.5 |
| 20260906015316 | 79 | 0 | 4.0 | 5.0 | 0.00 | 0.00 | 0.00 | 59 | 1015.3 |
| 20260906014316 | 79 | 0 | 5.0 | 9.0 | 0.00 | 0.00 | 0.00 | 59 | 1015.1 |
| 20260906013317 | 79 | 0 | 3.0 | 5.0 | 0.00 | 0.00 | 0.00 | 58 | 1015.2 |
| 20260906012317 | 79 | 135 | 3.0 | 5.0 | 0.00 | 0.00 | 0.00 | 57 | 1015.0 |
| 20260906011337 | 80 | 0 | 4.0 | 8.0 | 0.00 | 0.00 | 0.00 | 57 | 1015.0 |
| 20260906010336 | 80 | 0 | 5.0 | 8.0 | 0.00 | 0.00 | 0.00 | 57 | 1015.0 |
| 20260906005317 | 80 | 0 | 4.0 | 5.0 | 0.00 | 0.00 | 0.00 | 56 | 1015.2 |
| 20260906004317 | 81 | 0 | 4.0 | 5.0 | 0.00 | 0.00 | 0.00 | 55 | 1015.1 |
| 20260906003316 | 81 | 0 | 3.0 | 4.0 | 0.00 | 0.00 | 0.00 | 54 | 1015.1 |
| 20260906002317 | 82 | 158 | 2.0 | 4.0 | 0.00 | 0.00 | 0.00 | 54 | 1015.0 |
| 20260906001316 | 82 | 0 | 3.0 | 6.0 | 0.00 | 0.00 | 0.00 | 53 | 1015.0 |
| 20260906000318 | 83 | 0 | 5.0 | 9.0 | 0.00 | 0.00 | 0.00 | 52 | 1015.1 |
| 20260905235336 | 84 | 0 | 3.0 | 5.0 | 0.00 | 0.00 | 0.00 | 51 | 1014.6 |
| 20260905234316 | 85 | 0 | 7.0 | 12.0 | 0.00 | 0.00 | 0.00 | 48 | 1014.2 |
| 20260905233316 | 85 | 0 | 7.0 | 10.0 | 0.00 | 0.00 | 0.00 | 46 | 1014.0 |
| 20260905232336 | 86 | 0 | 5.0 | 10.0 | 0.00 | 0.00 | 0.00 | 45 | 1013.8 |
| 20260905231316 | 86 | 0 | 7.0 | 11.0 | 0.00 | 0.00 | 0.00 | 45 | 1013.7 |
| 20260905230336 | 86 | 0 | 4.0 | 5.0 | 0.00 | 0.00 | 0.00 | 46 | 1013.8 |
| 20260905225316 | 86 | 0 | 10.0 | 12.0 | 0.00 | 0.00 | 0.00 | 44 | 1013.6 |
| 20260905224317 | 86 | 0 | 7.0 | 10.0 | 0.00 | 0.00 | 0.00 | 45 | 1013.5 |
| 20260905223316 | 86 | 0 | 6.0 | 8.0 | 0.00 | 0.00 | 0.00 | 45 | 1013.5 |
| 20260905222316 | 87 | 0 | 9.0 | 13.0 | 0.00 | 0.00 | 0.00 | 45 | 1013.4 |
| 20260905221316 | 87 | 0 | 9.0 | 12.0 | 0.00 | 0.00 | 0.00 | 44 | 1013.6 |
| 20260905220316 | 86 | 0 | 11.0 | 14.0 | 0.00 | 0.00 | 0.00 | 45 | 1013.4 |
| 20260905215316 | 86 | 0 | 8.0 | 15.0 | 0.00 | 0.00 | 0.00 | 49 | 1013.5 |
| 20260905214356 | 85 | 0 | 11.0 | 15.0 | 0.00 | 0.00 | 0.00 | 49 | 1013.7 |
| 20260905213316 | 85 | 0 | 13.0 | 16.0 | 0.00 | 0.00 | 0.00 | 49 | 1014.0 |
| 20260905212316 | 85 | 0 | 5.0 | 6.0 | 0.00 | 0.00 | 0.00 | 50 | 1014.0 |
| 20260905211316 | 85 | 0 | 10.0 | 15.0 | 0.00 | 0.00 | 0.00 | 50 | 1014.1 |
| 20260905210316 | 85 | 0 | 8.0 | 12.0 | 0.00 | 0.00 | 0.00 | 50 | 1014.3 |
| 20260905205316 | 84 | 0 | 12.0 | 17.0 | 0.00 | 0.00 | 0.00 | 51 | 1014.5 |
| 20260905204316 | 84 | 0 | 10.0 | 15.0 | 0.00 | 0.00 | 0.00 | 53 | 1014.6 |
| 20260905203316 | 83 | 0 | 13.0 | 19.0 | 0.00 | 0.00 | 0.00 | 53 | 1014.6 |
| 20260905202336 | 83 | 0 | 11.0 | 13.0 | 0.00 | 0.00 | 0.00 | 54 | 1014.7 |
| 20260905201316 | 83 | 0 | 14.0 | 20.0 | 0.00 | 0.00 | 0.00 | 53 | 1014.9 |
| 20260905200336 | 82 | 0 | 9.0 | 11.0 | 0.00 | 0.00 | 0.00 | 55 | 1015.4 |